createdAt,value
2018-02-08T00:00:48.954Z,-6.1
2018-02-08T00:01:51.368Z,-6.1
2018-02-08T00:02:54.072Z,-6.1
2018-02-08T00:03:56.489Z,-6.1
2018-02-08T00:04:58.898Z,-6.1
2018-02-08T00:06:01.311Z,-6.1
2018-02-08T00:07:04.013Z,-6
2018-02-08T00:08:06.431Z,-6.1
2018-02-08T00:09:08.842Z,-6.2
2018-02-08T00:10:11.264Z,-6.1
2018-02-08T00:11:13.684Z,-6.2
2018-02-08T00:12:16.091Z,-6.3
2018-02-08T00:13:18.503Z,-6.3
2018-02-08T00:14:20.924Z,-6.3
2018-02-08T00:15:23.339Z,-6.2
2018-02-08T00:16:25.750Z,-6.3
2018-02-08T00:17:28.171Z,-6.3
2018-02-08T00:18:30.601Z,-6.2
2018-02-08T00:19:33.018Z,-6.2
2018-02-08T00:20:35.443Z,-6.2
2018-02-08T00:21:37.866Z,-6.1
2018-02-08T00:22:40.284Z,-6.1
2018-02-08T00:23:42.699Z,-6.1
2018-02-08T00:24:45.114Z,-6.1
2018-02-08T00:25:47.515Z,-6.2
2018-02-08T00:26:49.946Z,-6.2
2018-02-08T00:27:52.362Z,-6.2
2018-02-08T00:28:55.348Z,-6.2
2018-02-08T00:29:58.068Z,-6.2
2018-02-08T00:31:00.473Z,-6.1
2018-02-08T00:32:03.182Z,-6.2
2018-02-08T00:33:05.614Z,-6.1
2018-02-08T00:34:08.017Z,-6.2
2018-02-08T00:35:10.435Z,-6.2
2018-02-08T00:36:12.862Z,-6.2
2018-02-08T00:37:15.275Z,-6.2
2018-02-08T00:38:17.698Z,-6.3
2018-02-08T00:39:20.121Z,-6.3
2018-02-08T00:40:22.525Z,-6.3
2018-02-08T00:41:24.947Z,-6.2
2018-02-08T00:42:27.362Z,-6.2
2018-02-08T00:43:29.773Z,-6.1
2018-02-08T00:44:32.183Z,-6.1
2018-02-08T00:45:34.595Z,-6.1
2018-02-08T00:46:37.014Z,-6.2
2018-02-08T00:47:39.426Z,-6.2
2018-02-08T00:48:41.853Z,-6.2
2018-02-08T00:49:44.266Z,-6.2
2018-02-08T00:50:46.682Z,-6.2
2018-02-08T00:51:49.390Z,-6.1
2018-02-08T00:52:51.803Z,-6.1
2018-02-08T00:53:54.214Z,-6.1
2018-02-08T00:54:56.633Z,-6.1
2018-02-08T00:55:59.327Z,-6.2
2018-02-08T00:57:01.743Z,-6.2
2018-02-08T00:58:04.153Z,-6.2
2018-02-08T00:59:06.552Z,-6.2
2018-02-08T01:00:08.979Z,-6.2
2018-02-08T01:01:11.684Z,-6.2
2018-02-08T01:02:14.102Z,-6.2
2018-02-08T01:03:16.521Z,-6.2
2018-02-08T01:04:18.936Z,-6.2
2018-02-08T01:05:21.646Z,-6.2
2018-02-08T01:06:24.069Z,-6.2
2018-02-08T01:07:26.482Z,-6.3
2018-02-08T01:08:28.888Z,-6.3
2018-02-08T01:09:31.304Z,-6.2
2018-02-08T01:10:33.720Z,-6.3
2018-02-08T01:11:36.424Z,-6.3
2018-02-08T01:12:38.840Z,-6.3
2018-02-08T01:13:41.259Z,-6.3
2018-02-08T01:14:43.687Z,-6.4
2018-02-08T01:15:46.103Z,-6.3
2018-02-08T01:16:48.814Z,-6.3
2018-02-08T01:17:51.240Z,-6.3
2018-02-08T01:18:53.646Z,-6.3
2018-02-08T01:19:56.366Z,-6.3
2018-02-08T01:20:58.783Z,-6.3
2018-02-08T01:22:01.475Z,-6.3
2018-02-08T01:23:03.908Z,-6.3
2018-02-08T01:24:06.316Z,-6.3
2018-02-08T01:25:08.732Z,-6.3
2018-02-08T01:26:11.150Z,-6.3
2018-02-08T01:27:13.847Z,-6.3
2018-02-08T01:28:16.252Z,-6.3
2018-02-08T01:29:18.671Z,-6.3
2018-02-08T01:30:21.085Z,-6.3
2018-02-08T01:31:23.500Z,-6.3
2018-02-08T01:32:25.932Z,-6.3
2018-02-08T01:33:28.329Z,-6.3
2018-02-08T01:34:30.756Z,-6.3
2018-02-08T01:35:33.170Z,-6.3
2018-02-08T01:36:35.586Z,-6.3
2018-02-08T01:37:38.001Z,-6.3
2018-02-08T01:38:40.420Z,-6.3
2018-02-08T01:39:42.831Z,-6.3
2018-02-08T01:40:45.252Z,-6.3
2018-02-08T01:41:47.674Z,-6.3
2018-02-08T01:42:50.382Z,-6.3
2018-02-08T01:43:52.795Z,-6.3
2018-02-08T01:44:55.215Z,-6.3
2018-02-08T01:45:57.635Z,-6.3
2018-02-08T01:47:00.041Z,-6.3
2018-02-08T01:48:02.753Z,-6.4
2018-02-08T01:49:05.157Z,-6.4
2018-02-08T01:50:07.570Z,-6.4
2018-02-08T01:51:09.985Z,-6.4
2018-02-08T01:52:12.687Z,-6.4
2018-02-08T01:53:15.094Z,-6.4
2018-02-08T01:54:17.522Z,-6.4
2018-02-08T01:55:20.228Z,-6.5
2018-02-08T01:56:22.657Z,-6.4
2018-02-08T01:57:25.076Z,-6.4
2018-02-08T01:58:28.054Z,-6.4
2018-02-08T01:59:30.481Z,-6.5
2018-02-08T02:00:32.893Z,-6.5
2018-02-08T02:01:35.313Z,-6.5
2018-02-08T02:02:37.719Z,-6.5
2018-02-08T02:03:40.416Z,-6.6
2018-02-08T02:04:43.107Z,-6.6
2018-02-08T02:05:45.535Z,-6.5
2018-02-08T02:06:48.235Z,-6.6
2018-02-08T02:07:50.644Z,-6.5
2018-02-08T02:08:53.066Z,-6.5
2018-02-08T02:09:55.783Z,-6.5
2018-02-08T02:10:58.188Z,-6.6
2018-02-08T02:12:00.606Z,-6.5
2018-02-08T02:13:03.034Z,-6.6
2018-02-08T02:14:05.448Z,-6.5
2018-02-08T02:15:07.862Z,-6.5
2018-02-08T02:16:10.277Z,-6.5
2018-02-08T02:17:12.691Z,-6.5
2018-02-08T02:18:15.106Z,-6.5
2018-02-08T02:19:17.520Z,-6.6
2018-02-08T02:20:19.921Z,-6.6
2018-02-08T02:21:22.346Z,-6.6
2018-02-08T02:22:24.760Z,-6.6
2018-02-08T02:23:27.174Z,-6.7
2018-02-08T02:24:29.594Z,-6.7
2018-02-08T02:25:32.294Z,-6.7
2018-02-08T02:26:34.994Z,-6.7
2018-02-08T02:27:37.705Z,-6.7
2018-02-08T02:28:40.126Z,-6.7
2018-02-08T02:29:42.534Z,-6.6
2018-02-08T02:30:44.954Z,-6.6
2018-02-08T02:31:47.368Z,-6.7
2018-02-08T02:32:49.784Z,-6.7
2018-02-08T02:33:52.194Z,-6.7
2018-02-08T02:34:54.610Z,-6.7
2018-02-08T02:35:57.024Z,-6.7
2018-02-08T02:36:59.450Z,-6.7
2018-02-08T02:38:01.867Z,-6.8
2018-02-08T02:39:04.285Z,-6.8
2018-02-08T02:40:06.709Z,-6.8
2018-02-08T02:41:09.126Z,-6.8
2018-02-08T02:42:11.537Z,-6.8
2018-02-08T02:43:13.956Z,-6.8
2018-02-08T02:44:16.355Z,-6.8
2018-02-08T02:45:19.051Z,-6.8
2018-02-08T02:46:21.766Z,-6.8
2018-02-08T02:47:24.176Z,-6.8
2018-02-08T02:48:26.591Z,-6.8
2018-02-08T02:49:29.012Z,-6.9
2018-02-08T02:50:31.429Z,-6.9
2018-02-08T02:51:33.849Z,-6.9
2018-02-08T02:52:36.268Z,-6.9
2018-02-08T02:53:38.676Z,-6.9
2018-02-08T02:54:41.384Z,-6.8
2018-02-08T02:55:44.092Z,-6.9
2018-02-08T02:56:46.794Z,-6.8
2018-02-08T02:57:49.510Z,-6.9
2018-02-08T02:58:51.920Z,-6.9
2018-02-08T02:59:54.334Z,-6.9
2018-02-08T03:00:56.757Z,-6.8
2018-02-08T03:01:59.156Z,-6.8
2018-02-08T03:03:01.866Z,-6.8
2018-02-08T03:04:04.272Z,-6.9
2018-02-08T03:05:06.688Z,-6.9
2018-02-08T03:06:09.108Z,-6.9
2018-02-08T03:07:11.815Z,-6.9
2018-02-08T03:08:14.236Z,-7
2018-02-08T03:09:16.645Z,-6.9
2018-02-08T03:10:19.063Z,-6.9
2018-02-08T03:11:21.480Z,-6.9
2018-02-08T03:12:23.882Z,-6.9
2018-02-08T03:13:26.295Z,-6.9
2018-02-08T03:14:28.712Z,-6.9
2018-02-08T03:15:31.135Z,-6.9
2018-02-08T03:16:33.554Z,-7
2018-02-08T03:17:36.276Z,-6.9
2018-02-08T03:18:38.692Z,-7
2018-02-08T03:19:41.120Z,-7
2018-02-08T03:20:43.827Z,-6.9
2018-02-08T03:21:46.525Z,-6.9
2018-02-08T03:22:48.935Z,-7
2018-02-08T03:23:51.355Z,-7
2018-02-08T03:24:53.771Z,-7.1
2018-02-08T03:25:56.187Z,-7.1
2018-02-08T03:26:58.594Z,-7.1
2018-02-08T03:28:01.299Z,-7.1
2018-02-08T03:29:03.728Z,-7.1
2018-02-08T03:30:06.144Z,-7.1
2018-02-08T03:31:08.839Z,-7.2
2018-02-08T03:32:11.255Z,-7.2
2018-02-08T03:33:13.668Z,-7.2
2018-02-08T03:34:16.077Z,-7.2
2018-02-08T03:35:18.499Z,-7.3
2018-02-08T03:36:20.903Z,-7.3
2018-02-08T03:37:23.598Z,-7.2
2018-02-08T03:38:26.031Z,-7.2
2018-02-08T03:39:28.438Z,-7.3
2018-02-08T03:40:30.853Z,-7.3
2018-02-08T03:41:33.273Z,-7.3
2018-02-08T03:42:35.689Z,-7.3
2018-02-08T03:43:38.087Z,-7.3
2018-02-08T03:44:40.792Z,-7.3
2018-02-08T03:45:43.213Z,-7.3
2018-02-08T03:46:45.637Z,-7.3
2018-02-08T03:47:48.118Z,-7.4
2018-02-08T03:48:50.841Z,-7.4
2018-02-08T03:49:53.260Z,-7.4
2018-02-08T03:50:55.680Z,-7.4
2018-02-08T03:51:58.083Z,-7.4
2018-02-08T03:53:00.785Z,-7.4
2018-02-08T03:54:03.205Z,-7.4
2018-02-08T03:55:05.606Z,-7.4
2018-02-08T03:56:08.019Z,-7.5
2018-02-08T03:57:10.436Z,-7.5
2018-02-08T03:58:12.856Z,-7.5
2018-02-08T03:59:15.270Z,-7.5
2018-02-08T04:00:17.682Z,-7.5
2018-02-08T04:01:20.103Z,-7.5
2018-02-08T04:02:22.539Z,-7.5
2018-02-08T04:03:24.944Z,-7.5
2018-02-08T04:04:27.352Z,-7.5
2018-02-08T04:05:29.763Z,-7.4
2018-02-08T04:06:32.178Z,-7.5
2018-02-08T04:07:34.598Z,-7.5
2018-02-08T04:08:37.003Z,-7.5
2018-02-08T04:09:39.436Z,-7.5
2018-02-08T04:10:41.848Z,-7.6
2018-02-08T04:11:44.260Z,-7.6
2018-02-08T04:12:46.677Z,-7.7
2018-02-08T04:13:49.371Z,-7.7
2018-02-08T04:14:51.779Z,-7.7
2018-02-08T04:15:54.207Z,-7.6
2018-02-08T04:16:56.610Z,-7.6
2018-02-08T04:17:59.026Z,-7.6
2018-02-08T04:19:01.448Z,-7.6
2018-02-08T04:20:04.140Z,-7.6
2018-02-08T04:21:06.547Z,-7.7
2018-02-08T04:22:08.970Z,-7.7
2018-02-08T04:23:11.379Z,-7.7
2018-02-08T04:24:13.793Z,-7.7
2018-02-08T04:25:16.210Z,-7.7
2018-02-08T04:26:18.622Z,-7.7
2018-02-08T04:27:21.046Z,-7.7
2018-02-08T04:28:23.463Z,-7.7
2018-02-08T04:29:25.884Z,-7.8
2018-02-08T04:30:28.302Z,-7.8
2018-02-08T04:31:31.286Z,-7.7
2018-02-08T04:32:33.697Z,-7.7
2018-02-08T04:33:36.112Z,-7.7
2018-02-08T04:34:38.524Z,-7.7
2018-02-08T04:35:40.932Z,-7.7
2018-02-08T04:36:43.344Z,-7.6
2018-02-08T04:37:45.758Z,-7.7
2018-02-08T04:38:48.174Z,-7.6
2018-02-08T04:39:50.589Z,-7.6
2018-02-08T04:40:53.007Z,-7.6
2018-02-08T04:41:55.423Z,-7.6
2018-02-08T04:42:57.842Z,-7.6
2018-02-08T04:44:00.541Z,-7.6
2018-02-08T04:45:02.941Z,-7.6
2018-02-08T04:46:05.356Z,-7.6
2018-02-08T04:47:07.762Z,-7.6
2018-02-08T04:48:10.177Z,-7.6
2018-02-08T04:49:12.584Z,-7.7
2018-02-08T04:50:14.996Z,-7.7
2018-02-08T04:51:17.411Z,-7.7
2018-02-08T04:52:19.842Z,-7.7
2018-02-08T04:53:22.240Z,-7.8
2018-02-08T04:54:24.654Z,-7.8
2018-02-08T04:55:27.077Z,-7.7
2018-02-08T04:56:29.489Z,-7.7
2018-02-08T04:57:31.908Z,-7.7
2018-02-08T04:58:34.320Z,-7.7
2018-02-08T04:59:36.716Z,-7.6
2018-02-08T05:00:39.145Z,-7.6
2018-02-08T05:01:41.558Z,-7.6
2018-02-08T05:02:43.967Z,-7.6
2018-02-08T05:03:46.380Z,-7.6
2018-02-08T05:04:48.788Z,-7.6
2018-02-08T05:05:51.476Z,-7.7
2018-02-08T05:06:53.903Z,-7.7
2018-02-08T05:07:56.312Z,-7.7
2018-02-08T05:08:58.732Z,-7.7
2018-02-08T05:10:01.163Z,-7.6
2018-02-08T05:11:03.570Z,-7.6
2018-02-08T05:12:05.980Z,-7.6
2018-02-08T05:13:08.387Z,-7.6
2018-02-08T05:14:10.802Z,-7.6
2018-02-08T05:15:13.209Z,-7.6
2018-02-08T05:16:15.626Z,-7.6
2018-02-08T05:17:18.329Z,-7.6
2018-02-08T05:18:21.017Z,-7.6
2018-02-08T05:19:23.439Z,-7.6
2018-02-08T05:20:26.142Z,-7.6
2018-02-08T05:21:28.559Z,-7.6
2018-02-08T05:22:30.966Z,-7.6
2018-02-08T05:23:33.379Z,-7.6
2018-02-08T05:24:35.795Z,-7.6
2018-02-08T05:25:38.501Z,-7.6
2018-02-08T05:26:40.913Z,-7.6
2018-02-08T05:27:43.327Z,-7.6
2018-02-08T05:28:45.737Z,-7.6
2018-02-08T05:29:48.439Z,-7.6
2018-02-08T05:30:50.852Z,-7.6
2018-02-08T05:31:53.266Z,-7.6
2018-02-08T05:32:55.676Z,-7.6
2018-02-08T05:33:58.085Z,-7.5
2018-02-08T05:35:00.504Z,-7.6
2018-02-08T05:36:02.920Z,-7.6
2018-02-08T05:37:05.330Z,-7.6
2018-02-08T05:38:07.744Z,-7.6
2018-02-08T05:39:10.463Z,-7.6
2018-02-08T05:40:12.870Z,-7.6
2018-02-08T05:41:15.281Z,-7.6
2018-02-08T05:42:17.707Z,-7.6
2018-02-08T05:43:20.394Z,-7.6
2018-02-08T05:44:23.087Z,-7.5
2018-02-08T05:45:26.074Z,-7.5
2018-02-08T05:46:28.774Z,-7.6
2018-02-08T05:47:31.187Z,-7.6
2018-02-08T05:48:33.600Z,-7.5
2018-02-08T05:49:36.003Z,-7.5
2018-02-08T05:50:38.424Z,-7.5
2018-02-08T05:51:40.837Z,-7.5
2018-02-08T05:52:43.254Z,-7.6
2018-02-08T05:53:45.669Z,-7.6
2018-02-08T05:54:48.083Z,-7.6
2018-02-08T05:55:50.774Z,-7.6
2018-02-08T05:56:53.196Z,-7.6
2018-02-08T05:57:55.598Z,-7.7
2018-02-08T05:58:58.286Z,-7.6
2018-02-08T06:00:00.699Z,-7.6
2018-02-08T06:01:03.390Z,-7.6
2018-02-08T06:02:06.083Z,-7.7
2018-02-08T06:03:08.497Z,-7.7
2018-02-08T06:04:10.913Z,-7.6
2018-02-08T06:05:13.334Z,-7.6
2018-02-08T06:06:15.741Z,-7.6
2018-02-08T06:07:18.159Z,-7.6
2018-02-08T06:08:20.572Z,-7.6
2018-02-08T06:09:22.984Z,-7.6
2018-02-08T06:10:25.690Z,-7.6
2018-02-08T06:11:28.107Z,-7.5
2018-02-08T06:12:30.514Z,-7.6
2018-02-08T06:13:32.932Z,-7.6
2018-02-08T06:14:35.345Z,-7.6
2018-02-08T06:15:37.770Z,-7.6
2018-02-08T06:16:40.178Z,-7.6
2018-02-08T06:17:42.587Z,-7.5
2018-02-08T06:18:44.998Z,-7.5
2018-02-08T06:19:47.411Z,-7.5
2018-02-08T06:20:49.834Z,-7.6
2018-02-08T06:21:52.246Z,-7.6
2018-02-08T06:22:54.642Z,-7.6
2018-02-08T06:23:57.057Z,-7.6
2018-02-08T06:24:59.473Z,-7.6
2018-02-08T06:26:01.882Z,-7.6
2018-02-08T06:27:04.294Z,-7.6
2018-02-08T06:28:06.710Z,-7.6
2018-02-08T06:29:09.112Z,-7.6
2018-02-08T06:30:11.538Z,-7.6
2018-02-08T06:31:13.952Z,-7.6
2018-02-08T06:32:16.355Z,-7.5
2018-02-08T06:33:18.772Z,-7.5
2018-02-08T06:34:21.194Z,-7.4
2018-02-08T06:35:23.610Z,-7.4
2018-02-08T06:36:26.022Z,-7.5
2018-02-08T06:37:28.433Z,-7.5
2018-02-08T06:38:30.846Z,-7.5
2018-02-08T06:39:33.269Z,-7.5
2018-02-08T06:40:35.683Z,-7.5
2018-02-08T06:41:38.082Z,-7.6
2018-02-08T06:42:40.500Z,-7.6
2018-02-08T06:43:42.923Z,-7.6
2018-02-08T06:44:45.343Z,-7.6
2018-02-08T06:45:47.758Z,-7.6
2018-02-08T06:46:50.167Z,-7.6
2018-02-08T06:47:52.574Z,-7.6
2018-02-08T06:48:55.000Z,-7.6
2018-02-08T06:49:57.714Z,-7.6
2018-02-08T06:51:00.118Z,-7.6
2018-02-08T06:52:02.531Z,-7.6
2018-02-08T06:53:05.519Z,-7.6
2018-02-08T06:54:08.221Z,-7.6
2018-02-08T06:55:10.919Z,-7.5
2018-02-08T06:56:13.626Z,-7.5
2018-02-08T06:57:16.041Z,-7.5
2018-02-08T06:58:18.461Z,-7.5
2018-02-08T06:59:20.884Z,-7.5
2018-02-08T07:00:23.580Z,-7.4
2018-02-08T07:01:26.278Z,-7.4
2018-02-08T07:02:28.688Z,-7.3
2018-02-08T07:03:31.116Z,-7.4
2018-02-08T07:04:33.527Z,-7.4
2018-02-08T07:05:35.932Z,-7.4
2018-02-08T07:06:38.340Z,-7.4
2018-02-08T07:07:41.038Z,-7.3
2018-02-08T07:08:43.450Z,-7.2
2018-02-08T07:09:45.865Z,-7.1
2018-02-08T07:10:48.276Z,-7.1
2018-02-08T07:11:50.692Z,-7.1
2018-02-08T07:12:53.094Z,-7.1
2018-02-08T07:13:55.808Z,-7
2018-02-08T07:14:58.219Z,-7
2018-02-08T07:16:00.629Z,-7
2018-02-08T07:17:03.045Z,-6.9
2018-02-08T07:18:05.457Z,-6.9
2018-02-08T07:19:07.868Z,-6.9
2018-02-08T07:20:10.287Z,-6.8
2018-02-08T07:21:12.695Z,-6.8
2018-02-08T07:22:15.116Z,-6.8
2018-02-08T07:23:17.526Z,-6.7
2018-02-08T07:24:19.937Z,-6.7
2018-02-08T07:25:22.352Z,-6.6
2018-02-08T07:26:24.766Z,-6.5
2018-02-08T07:27:27.176Z,-6.4
2018-02-08T07:28:29.895Z,-6.4
2018-02-08T07:29:32.294Z,-6.3
2018-02-08T07:30:34.716Z,-6.2
2018-02-08T07:31:37.130Z,-6.2
2018-02-08T07:32:39.829Z,-6.1
2018-02-08T07:33:42.247Z,-5.9
2018-02-08T07:34:44.660Z,-5.9
2018-02-08T07:35:47.352Z,-5.9
2018-02-08T07:36:49.766Z,-5.8
2018-02-08T07:37:52.182Z,-5.6
2018-02-08T07:38:54.612Z,-5.5
2018-02-08T07:39:57.020Z,-5.2
2018-02-08T07:40:59.442Z,-5.3
2018-02-08T07:42:01.851Z,-5.2
2018-02-08T07:43:04.558Z,-5.3
2018-02-08T07:44:06.976Z,-5.1
2018-02-08T07:45:09.394Z,-4.9
2018-02-08T07:46:11.804Z,-4.9
2018-02-08T07:47:14.235Z,-4.9
2018-02-08T07:48:16.944Z,-4.7
2018-02-08T07:49:19.365Z,-4.5
2018-02-08T07:50:21.782Z,-4.5
2018-02-08T07:51:24.194Z,-4.3
2018-02-08T07:52:26.612Z,-4.6
2018-02-08T07:53:29.035Z,-4.6
2018-02-08T07:54:31.749Z,-4.6
2018-02-08T07:55:34.172Z,-4.5
2018-02-08T07:56:36.931Z,-4.2
2018-02-08T07:57:39.636Z,-4.2
2018-02-08T07:58:42.050Z,-4.2
2018-02-08T07:59:44.475Z,-4.2
2018-02-08T08:00:46.885Z,-4.1
2018-02-08T08:01:49.309Z,-4
2018-02-08T08:02:51.743Z,-4
2018-02-08T08:03:54.499Z,-4
2018-02-08T08:04:56.897Z,-3.8
2018-02-08T08:05:59.315Z,-3.8
2018-02-08T08:07:02.323Z,-3.5
2018-02-08T08:08:04.749Z,-3.3
2018-02-08T08:09:07.173Z,-3.3
2018-02-08T08:10:09.583Z,-3.5
2018-02-08T08:11:12.002Z,-3.2
2018-02-08T08:12:14.415Z,-3.3
2018-02-08T08:13:17.130Z,-3.3
2018-02-08T08:14:19.828Z,-3.2
2018-02-08T08:15:22.252Z,-3.4
2018-02-08T08:16:24.972Z,-3.3
2018-02-08T08:17:27.399Z,-3.3
2018-02-08T08:18:29.828Z,-3.2
2018-02-08T08:19:32.821Z,-3.1
2018-02-08T08:20:35.247Z,-2.8
2018-02-08T08:21:37.678Z,-2.6
2018-02-08T08:22:40.110Z,-2.8
2018-02-08T08:23:42.530Z,-2.4
2018-02-08T08:24:44.960Z,-2.4
2018-02-08T08:25:47.382Z,-2.2
2018-02-08T08:26:49.806Z,-2.1
2018-02-08T08:27:52.532Z,-2.1
2018-02-08T08:28:54.946Z,-2.3
2018-02-08T08:29:57.372Z,-1.8
2018-02-08T08:30:59.796Z,-1.7
2018-02-08T08:32:02.513Z,-1.5
2018-02-08T08:33:04.941Z,-1.4
2018-02-08T08:34:07.371Z,-0.9
2018-02-08T08:35:09.810Z,-1.1
2018-02-08T08:36:12.221Z,-1.2
2018-02-08T08:37:14.929Z,-1
2018-02-08T08:38:17.358Z,-0.9
2018-02-08T08:39:19.775Z,-0.7
2018-02-08T08:40:22.204Z,-0.6
2018-02-08T08:41:24.629Z,-0.4
2018-02-08T08:42:27.044Z,-0.4
2018-02-08T08:43:29.480Z,-0.6
2018-02-08T08:44:31.930Z,-0.7
2018-02-08T08:45:34.334Z,-0.3
2018-02-08T08:46:36.770Z,-0.7
2018-02-08T08:47:39.199Z,-0.4
2018-02-08T08:48:41.627Z,-0.2
2018-02-08T08:49:44.061Z,-0.1
2018-02-08T08:50:46.487Z,0.3
2018-02-08T08:51:48.918Z,0.2
2018-02-08T08:52:51.352Z,0.1
2018-02-08T08:53:53.773Z,0.3
2018-02-08T08:54:56.207Z,0
2018-02-08T08:55:58.681Z,0.4
2018-02-08T08:57:01.060Z,0
2018-02-08T08:58:03.758Z,0.4
2018-02-08T08:59:06.192Z,0
2018-02-08T09:00:08.624Z,0.4
2018-02-08T09:01:11.056Z,0.6
2018-02-08T09:02:13.488Z,0.5
2018-02-08T09:03:15.920Z,0.3
2018-02-08T09:04:18.353Z,0.8
2018-02-08T09:05:20.784Z,0.5
2018-02-08T09:06:23.220Z,0.2
2018-02-08T09:07:25.642Z,0.5
2018-02-08T09:08:28.080Z,0.8
2018-02-08T09:09:30.825Z,0.8
2018-02-08T09:10:33.251Z,1
2018-02-08T09:11:35.678Z,0.7
2018-02-08T09:12:38.110Z,0.8
2018-02-08T09:13:40.824Z,1.3
2018-02-08T09:14:43.261Z,1.2
2018-02-08T09:15:45.694Z,0.9
2018-02-08T09:16:48.115Z,1.3
2018-02-08T09:17:50.556Z,1.4
2018-02-08T09:18:52.976Z,1.1
2018-02-08T09:19:55.402Z,1.4
2018-02-08T09:20:58.124Z,1.7
2018-02-08T09:22:00.554Z,1.8
2018-02-08T09:23:03.257Z,1.8
2018-02-08T09:24:05.685Z,2
2018-02-08T09:25:08.110Z,1.3
2018-02-08T09:26:10.549Z,0.9
2018-02-08T09:27:12.987Z,1.2
2018-02-08T09:28:15.403Z,1.5
2018-02-08T09:29:17.837Z,1.5
2018-02-08T09:30:20.277Z,1
2018-02-08T09:31:23.005Z,1.6
2018-02-08T09:32:26.009Z,1.6
2018-02-08T09:33:28.428Z,1.5
2018-02-08T09:34:31.427Z,1.8
2018-02-08T09:35:33.855Z,1.5
2018-02-08T09:36:36.286Z,1.3
2018-02-08T09:37:38.719Z,1.2
2018-02-08T09:38:41.445Z,1.6
2018-02-08T09:39:44.162Z,1.9
2018-02-08T09:40:46.606Z,1.9
2018-02-08T09:41:49.031Z,1.7
2018-02-08T09:42:51.461Z,1.5
2018-02-08T09:43:53.899Z,1.6
2018-02-08T09:44:56.334Z,1.9
2018-02-08T09:45:58.753Z,1.6
2018-02-08T09:47:01.192Z,1.8
2018-02-08T09:48:03.623Z,2.1
2018-02-08T09:49:06.102Z,2
2018-02-08T09:50:08.492Z,2
2018-02-08T09:51:10.919Z,2.2
2018-02-08T09:52:13.354Z,2.1
2018-02-08T09:53:15.792Z,2.3
2018-02-08T09:54:18.213Z,1.6
2018-02-08T09:55:20.652Z,1.6
2018-02-08T09:56:23.089Z,1.7
2018-02-08T09:57:25.522Z,1.8
2018-02-08T09:58:27.960Z,1.9
2018-02-08T09:59:30.386Z,1.9
2018-02-08T10:00:33.109Z,2.2
2018-02-08T10:01:35.563Z,2.4
2018-02-08T10:02:37.992Z,2.2
2018-02-08T10:03:40.697Z,2.3
2018-02-08T10:04:43.132Z,2.4
2018-02-08T10:05:45.564Z,2.3
2018-02-08T10:06:48.282Z,2.1
2018-02-08T10:07:50.716Z,2.3
2018-02-08T10:08:53.160Z,2
2018-02-08T10:09:55.650Z,2
2018-02-08T10:10:58.031Z,2.1
2018-02-08T10:12:00.467Z,2
2018-02-08T10:13:02.898Z,2.5
2018-02-08T10:14:05.332Z,2.6
2018-02-08T10:15:07.765Z,2.5
2018-02-08T10:16:10.188Z,2.4
2018-02-08T10:17:12.618Z,2.7
2018-02-08T10:18:15.059Z,2.8
2018-02-08T10:19:17.486Z,3.2
2018-02-08T10:20:20.209Z,3.3
2018-02-08T10:21:22.639Z,3.2
2018-02-08T10:22:25.075Z,3
2018-02-08T10:23:27.808Z,2.5
2018-02-08T10:24:30.254Z,3.1
2018-02-08T10:25:32.672Z,3.3
2018-02-08T10:26:35.116Z,3.4
2018-02-08T10:27:37.548Z,3.7
2018-02-08T10:28:40.284Z,3
2018-02-08T10:29:42.718Z,3.1
2018-02-08T10:30:45.448Z,2.6
2018-02-08T10:31:48.270Z,2.2
2018-02-08T10:32:50.716Z,2.5
2018-02-08T10:33:53.141Z,2.4
2018-02-08T10:34:55.580Z,2.4
2018-02-08T10:35:58.313Z,2.8
2018-02-08T10:37:00.741Z,2.8
2018-02-08T10:38:03.182Z,2.7
2018-02-08T10:39:05.613Z,2.8
2018-02-08T10:40:08.047Z,2.4
2018-02-08T10:41:10.481Z,2.5
2018-02-08T10:42:12.902Z,2.3
2018-02-08T10:43:15.336Z,3
2018-02-08T10:44:17.780Z,3.3
2018-02-08T10:45:20.498Z,3.4
2018-02-08T10:46:22.926Z,3.1
2018-02-08T10:47:25.363Z,2.5
2018-02-08T10:48:27.804Z,2.9
2018-02-08T10:49:30.251Z,2.7
2018-02-08T10:50:32.987Z,2.5
2018-02-08T10:51:35.406Z,2.8
2018-02-08T10:52:37.845Z,2.2
2018-02-08T10:53:40.288Z,2.9
2018-02-08T10:54:42.727Z,3.1
2018-02-08T10:55:45.159Z,3.1
2018-02-08T10:56:47.870Z,3.3
2018-02-08T10:57:50.300Z,3.5
2018-02-08T10:58:52.750Z,3
2018-02-08T10:59:55.187Z,2.8
2018-02-08T11:00:57.608Z,3.1
2018-02-08T11:02:00.343Z,3.2
2018-02-08T11:03:02.780Z,3.4
2018-02-08T11:04:05.210Z,3
2018-02-08T11:05:07.651Z,3.6
2018-02-08T11:06:10.096Z,3.6
2018-02-08T11:07:12.524Z,3.1
2018-02-08T11:08:14.961Z,3
2018-02-08T11:09:17.388Z,2.8
2018-02-08T11:10:19.818Z,2.9
2018-02-08T11:11:22.257Z,3
2018-02-08T11:12:24.691Z,3.2
2018-02-08T11:13:27.396Z,2.9
2018-02-08T11:14:29.846Z,3.7
2018-02-08T11:15:32.286Z,3.8
2018-02-08T11:16:34.723Z,3.8
2018-02-08T11:17:37.472Z,3.5
2018-02-08T11:18:39.909Z,3.4
2018-02-08T11:19:42.381Z,3.1
2018-02-08T11:20:44.800Z,3.4
2018-02-08T11:21:47.504Z,3.4
2018-02-08T11:22:49.934Z,3.4
2018-02-08T11:23:52.363Z,3
2018-02-08T11:24:54.814Z,3.3
2018-02-08T11:25:57.238Z,3.2
2018-02-08T11:26:59.676Z,3.4
2018-02-08T11:28:02.118Z,3.2
2018-02-08T11:29:04.549Z,3.1
2018-02-08T11:30:06.986Z,3.5
2018-02-08T11:31:09.431Z,3.4
2018-02-08T11:32:11.858Z,3.4
2018-02-08T11:33:14.579Z,3.6
2018-02-08T11:34:17.023Z,3.3
2018-02-08T11:35:19.452Z,3.5
2018-02-08T11:36:21.884Z,3.6
2018-02-08T11:37:24.326Z,3.4
2018-02-08T11:38:26.757Z,3.6
2018-02-08T11:39:29.183Z,4.1
2018-02-08T11:40:31.909Z,4
2018-02-08T11:41:34.344Z,3.5
2018-02-08T11:42:37.123Z,3.7
2018-02-08T11:43:39.529Z,3.3
2018-02-08T11:44:41.964Z,3
2018-02-08T11:45:44.403Z,2.9
2018-02-08T11:46:46.896Z,3.4
2018-02-08T11:47:49.331Z,3.9
2018-02-08T11:48:51.781Z,3.7
2018-02-08T11:49:54.209Z,4.1
2018-02-08T11:50:56.936Z,4.3
2018-02-08T11:51:59.648Z,4
2018-02-08T11:53:02.078Z,3.7
2018-02-08T11:54:04.522Z,3.8
2018-02-08T11:55:06.952Z,4
2018-02-08T11:56:09.383Z,3.9
2018-02-08T11:57:12.138Z,2.9
2018-02-08T11:58:14.575Z,3.5
2018-02-08T11:59:17.043Z,3.6
2018-02-08T12:00:19.483Z,3.8
2018-02-08T12:01:21.925Z,4.1
2018-02-08T12:02:24.368Z,4.2
2018-02-08T12:03:26.803Z,3.6
2018-02-08T12:04:29.233Z,3.7
2018-02-08T12:05:31.672Z,4
2018-02-08T12:06:34.110Z,4.1
2018-02-08T12:07:36.533Z,4.4
2018-02-08T12:08:38.975Z,4
2018-02-08T12:09:41.416Z,4.1
2018-02-08T12:10:43.854Z,4.1
2018-02-08T12:11:46.304Z,4.1
2018-02-08T12:12:48.730Z,4.6
2018-02-08T12:13:51.175Z,5.2
2018-02-08T12:14:53.614Z,4.9
2018-02-08T12:15:56.053Z,4.6
2018-02-08T12:16:58.491Z,4.1
2018-02-08T12:18:00.939Z,3.5
2018-02-08T12:19:03.379Z,3.5
2018-02-08T12:20:06.102Z,4
2018-02-08T12:21:08.542Z,3.4
2018-02-08T12:22:10.965Z,3.4
2018-02-08T12:23:13.412Z,3.7
2018-02-08T12:24:16.142Z,4.5
2018-02-08T12:25:18.582Z,5
2018-02-08T12:26:21.024Z,5.2
2018-02-08T12:27:23.463Z,5.9
2018-02-08T12:28:25.903Z,6
2018-02-08T12:29:28.350Z,6.1
2018-02-08T12:30:30.782Z,6
2018-02-08T12:31:33.208Z,6
2018-02-08T12:32:35.646Z,5.1
2018-02-08T12:33:38.359Z,4.3
2018-02-08T12:34:40.797Z,4.1
2018-02-08T12:35:43.239Z,3.9
2018-02-08T12:36:45.683Z,3.6
2018-02-08T12:37:48.117Z,3.6
2018-02-08T12:38:50.571Z,3.6
2018-02-08T12:39:52.993Z,4.1
2018-02-08T12:40:55.439Z,4.4
2018-02-08T12:41:57.874Z,4.7
2018-02-08T12:43:00.315Z,4.4
2018-02-08T12:44:02.758Z,4.5
2018-02-08T12:45:05.195Z,4.4
2018-02-08T12:46:07.629Z,4.2
2018-02-08T12:47:10.074Z,4.1
2018-02-08T12:48:12.510Z,4.5
2018-02-08T12:49:14.946Z,4
2018-02-08T12:50:17.385Z,3.8
2018-02-08T12:51:19.819Z,4.2
2018-02-08T12:52:22.251Z,4.7
2018-02-08T12:53:24.704Z,5
2018-02-08T12:54:27.136Z,5.4
2018-02-08T12:55:29.585Z,5.7
2018-02-08T12:56:32.024Z,5.6
2018-02-08T12:57:34.468Z,5.9
2018-02-08T12:58:36.897Z,5.6
2018-02-08T12:59:39.340Z,5.8
2018-02-08T13:00:41.769Z,6
2018-02-08T13:01:44.214Z,5.3
2018-02-08T13:02:46.660Z,4.9
2018-02-08T13:03:49.102Z,5.8
2018-02-08T13:04:51.538Z,5.9
2018-02-08T13:05:53.986Z,6.3
2018-02-08T13:06:56.424Z,6.1
2018-02-08T13:07:59.174Z,6.3
2018-02-08T13:09:01.606Z,6.4
2018-02-08T13:10:04.042Z,6.2
2018-02-08T13:11:06.471Z,6.1
2018-02-08T13:12:08.911Z,6.3
2018-02-08T13:13:11.346Z,5.7
2018-02-08T13:14:14.070Z,5.7
2018-02-08T13:15:16.513Z,5.8
2018-02-08T13:16:18.954Z,5.8
2018-02-08T13:17:21.398Z,5.5
2018-02-08T13:18:23.834Z,5.7
2018-02-08T13:19:26.262Z,6
2018-02-08T13:20:28.700Z,6.1
2018-02-08T13:21:31.429Z,6
2018-02-08T13:22:33.874Z,6.3
2018-02-08T13:23:36.308Z,5.9
2018-02-08T13:24:38.754Z,5.1
2018-02-08T13:25:41.188Z,5.1
2018-02-08T13:26:43.928Z,5.5
2018-02-08T13:27:46.357Z,5.5
2018-02-08T13:28:48.789Z,5.3
2018-02-08T13:29:51.228Z,5.2
2018-02-08T13:30:53.667Z,5.2
2018-02-08T13:31:56.112Z,5.2
2018-02-08T13:32:58.549Z,5.1
2018-02-08T13:34:00.985Z,5.5
2018-02-08T13:35:03.426Z,5.2
2018-02-08T13:36:05.850Z,5.5
2018-02-08T13:37:08.290Z,5.7
2018-02-08T13:38:10.730Z,5.6
2018-02-08T13:39:13.165Z,5
2018-02-08T13:40:15.607Z,4.6
2018-02-08T13:41:18.046Z,4.8
2018-02-08T13:42:20.773Z,4.9
2018-02-08T13:43:23.217Z,4.8
2018-02-08T13:44:25.947Z,4.9
2018-02-08T13:45:28.375Z,5.1
2018-02-08T13:46:30.812Z,5
2018-02-08T13:47:33.523Z,4.6
2018-02-08T13:48:35.964Z,4.6
2018-02-08T13:49:38.399Z,4.7
2018-02-08T13:50:40.827Z,4.4
2018-02-08T13:51:43.270Z,4
2018-02-08T13:52:45.703Z,3.6
2018-02-08T13:53:48.141Z,3.8
2018-02-08T13:54:50.576Z,3.9
2018-02-08T13:55:53.014Z,3.6
2018-02-08T13:56:55.454Z,3.8
2018-02-08T13:57:57.886Z,3.7
2018-02-08T13:59:00.319Z,3.9
2018-02-08T14:00:02.760Z,3.6
2018-02-08T14:01:05.193Z,3.6
2018-02-08T14:02:07.646Z,3.5
2018-02-08T14:03:10.079Z,3.4
2018-02-08T14:04:12.507Z,3.7
2018-02-08T14:05:14.943Z,3.6
2018-02-08T14:06:17.386Z,3.7